sensor_id;sensor_type;location;lat;lon;timestamp;P1;durP1;ratioP1;P2;durP2;ratioP2
46391;SDS011;32098;49.448;7.904;2023-05-10T00:00:15;1.15;;;0.95;;
46391;SDS011;32098;49.448;7.904;2023-05-10T00:02:42;1.75;;;1.00;;
46391;SDS011;32098;49.448;7.904;2023-05-10T00:05:09;1.10;;;1.00;;
46391;SDS011;32098;49.448;7.904;2023-05-10T00:07:36;1.25;;;1.15;;
46391;SDS011;32098;49.448;7.904;2023-05-10T00:10:02;1.58;;;1.00;;
46391;SDS011;32098;49.448;7.904;2023-05-10T00:12:29;2.30;;;1.17;;
46391;SDS011;32098;49.448;7.904;2023-05-10T00:14:56;1.25;;;1.15;;
46391;SDS011;32098;49.448;7.904;2023-05-10T00:17:22;1.20;;;1.10;;
46391;SDS011;32098;49.448;7.904;2023-05-10T00:19:49;1.90;;;1.10;;
46391;SDS011;32098;49.448;7.904;2023-05-10T00:22:15;1.17;;;1.17;;
46391;SDS011;32098;49.448;7.904;2023-05-10T00:24:42;2.40;;;1.05;;
46391;SDS011;32098;49.448;7.904;2023-05-10T00:27:09;1.15;;;1.08;;
46391;SDS011;32098;49.448;7.904;2023-05-10T00:29:35;1.05;;;1.05;;
46391;SDS011;32098;49.448;7.904;2023-05-10T00:32:02;3.22;;;1.17;;
46391;SDS011;32098;49.448;7.904;2023-05-10T00:34:29;1.30;;;1.20;;
46391;SDS011;32098;49.448;7.904;2023-05-10T00:36:56;1.13;;;1.13;;
46391;SDS011;32098;49.448;7.904;2023-05-10T00:39:23;1.67;;;1.20;;
46391;SDS011;32098;49.448;7.904;2023-05-10T00:41:49;1.75;;;1.35;;
46391;SDS011;32098;49.448;7.904;2023-05-10T00:44:16;3.20;;;1.40;;
46391;SDS011;32098;49.448;7.904;2023-05-10T00:46:44;2.35;;;1.40;;
46391;SDS011;32098;49.448;7.904;2023-05-10T00:49:12;1.50;;;1.13;;
46391;SDS011;32098;49.448;7.904;2023-05-10T00:51:39;1.80;;;1.50;;
46391;SDS011;32098;49.448;7.904;2023-05-10T00:54:05;1.50;;;1.40;;
46391;SDS011;32098;49.448;7.904;2023-05-10T00:56:32;1.50;;;1.40;;
46391;SDS011;32098;49.448;7.904;2023-05-10T00:58:59;3.65;;;1.48;;
46391;SDS011;32098;49.448;7.904;2023-05-10T01:01:26;2.90;;;1.20;;
46391;SDS011;32098;49.448;7.904;2023-05-10T01:03:54;2.10;;;1.38;;
46391;SDS011;32098;49.448;7.904;2023-05-10T01:06:21;2.70;;;1.30;;
46391;SDS011;32098;49.448;7.904;2023-05-10T01:08:48;4.28;;;1.40;;
46391;SDS011;32098;49.448;7.904;2023-05-10T01:11:14;1.75;;;1.40;;
46391;SDS011;32098;49.448;7.904;2023-05-10T01:13:41;2.60;;;1.27;;
46391;SDS011;32098;49.448;7.904;2023-05-10T01:16:09;1.27;;;1.17;;
46391;SDS011;32098;49.448;7.904;2023-05-10T01:18:36;1.88;;;1.58;;
46391;SDS011;32098;49.448;7.904;2023-05-10T01:32:45;1.67;;;1.42;;
46391;SDS011;32098;49.448;7.904;2023-05-10T01:35:17;2.47;;;1.45;;
46391;SDS011;32098;49.448;7.904;2023-05-10T01:38:38;1.35;;;1.25;;
46391;SDS011;32098;49.448;7.904;2023-05-10T01:40:58;1.55;;;1.45;;
46391;SDS011;32098;49.448;7.904;2023-05-10T01:43:57;2.35;;;1.50;;
46391;SDS011;32098;49.448;7.904;2023-05-10T01:46:28;1.50;;;1.40;;
46391;SDS011;32098;49.448;7.904;2023-05-10T01:49:01;1.98;;;1.58;;
46391;SDS011;32098;49.448;7.904;2023-05-10T01:51:36;1.63;;;1.52;;
46391;SDS011;32098;49.448;7.904;2023-05-10T01:54:10;2.22;;;1.58;;
46391;SDS011;32098;49.448;7.904;2023-05-10T01:56:40;1.70;;;1.60;;
46391;SDS011;32098;49.448;7.904;2023-05-10T01:59:11;2.33;;;1.60;;
46391;SDS011;32098;49.448;7.904;2023-05-10T02:01:41;2.63;;;1.83;;
46391;SDS011;32098;49.448;7.904;2023-05-10T02:04:09;2.72;;;1.90;;
46391;SDS011;32098;49.448;7.904;2023-05-10T02:06:40;2.55;;;2.08;;
46391;SDS011;32098;49.448;7.904;2023-05-10T02:09:09;3.35;;;2.30;;
46391;SDS011;32098;49.448;7.904;2023-05-10T02:11:38;2.55;;;2.30;;
46391;SDS011;32098;49.448;7.904;2023-05-10T02:14:07;2.38;;;2.17;;
46391;SDS011;32098;49.448;7.904;2023-05-10T02:16:36;4.65;;;2.40;;
46391;SDS011;32098;49.448;7.904;2023-05-10T02:19:05;2.53;;;2.25;;
46391;SDS011;32098;49.448;7.904;2023-05-10T02:21:35;2.80;;;2.47;;
46391;SDS011;32098;49.448;7.904;2023-05-10T02:24:03;2.92;;;2.60;;
46391;SDS011;32098;49.448;7.904;2023-05-10T02:26:31;2.40;;;2.28;;
46391;SDS011;32098;49.448;7.904;2023-05-10T02:29:02;2.35;;;2.15;;
46391;SDS011;32098;49.448;7.904;2023-05-10T02:31:32;3.00;;;2.38;;
46391;SDS011;32098;49.448;7.904;2023-05-10T02:33:59;2.60;;;2.40;;
46391;SDS011;32098;49.448;7.904;2023-05-10T02:36:27;2.85;;;2.45;;
46391;SDS011;32098;49.448;7.904;2023-05-10T02:38:54;2.67;;;2.45;;
46391;SDS011;32098;49.448;7.904;2023-05-10T02:41:22;2.50;;;2.10;;
46391;SDS011;32098;49.448;7.904;2023-05-10T02:43:52;3.83;;;2.50;;
46391;SDS011;32098;49.448;7.904;2023-05-10T02:46:23;4.93;;;2.40;;
46391;SDS011;32098;49.448;7.904;2023-05-10T02:48:50;3.10;;;2.45;;
46391;SDS011;32098;49.448;7.904;2023-05-10T02:51:16;2.95;;;2.72;;
46391;SDS011;32098;49.448;7.904;2023-05-10T02:53:46;3.35;;;2.70;;
46391;SDS011;32098;49.448;7.904;2023-05-10T02:56:15;5.00;;;2.40;;
46391;SDS011;32098;49.448;7.904;2023-05-10T02:58:51;3.55;;;2.63;;
46391;SDS011;32098;49.448;7.904;2023-05-10T03:01:18;2.85;;;2.65;;
46391;SDS011;32098;49.448;7.904;2023-05-10T03:03:45;4.10;;;2.80;;
46391;SDS011;32098;49.448;7.904;2023-05-10T03:06:11;4.90;;;2.58;;
46391;SDS011;32098;49.448;7.904;2023-05-10T03:08:38;4.25;;;2.92;;
46391;SDS011;32098;49.448;7.904;2023-05-10T03:13:56;3.67;;;2.35;;
46391;SDS011;32098;49.448;7.904;2023-05-10T03:16:29;4.03;;;2.40;;
46391;SDS011;32098;49.448;7.904;2023-05-10T03:21:41;3.80;;;2.90;;
46391;SDS011;32098;49.448;7.904;2023-05-10T03:24:14;2.92;;;2.60;;
46391;SDS011;32098;49.448;7.904;2023-05-10T03:26:44;3.13;;;2.70;;
46391;SDS011;32098;49.448;7.904;2023-05-10T03:29:15;3.38;;;2.60;;
46391;SDS011;32098;49.448;7.904;2023-05-10T03:31:43;6.75;;;2.83;;
46391;SDS011;32098;49.448;7.904;2023-05-10T03:34:10;5.43;;;2.90;;
46391;SDS011;32098;49.448;7.904;2023-05-10T03:36:37;3.38;;;2.90;;
46391;SDS011;32098;49.448;7.904;2023-05-10T03:39:04;3.10;;;2.90;;
46391;SDS011;32098;49.448;7.904;2023-05-10T03:41:30;4.82;;;3.40;;
46391;SDS011;32098;49.448;7.904;2023-05-10T03:43:57;3.10;;;2.80;;
46391;SDS011;32098;49.448;7.904;2023-05-10T03:46:23;3.20;;;2.90;;
46391;SDS011;32098;49.448;7.904;2023-05-10T03:48:50;4.10;;;3.10;;
46391;SDS011;32098;49.448;7.904;2023-05-10T03:51:17;5.70;;;3.20;;
46391;SDS011;32098;49.448;7.904;2023-05-10T03:53:43;3.17;;;2.97;;
46391;SDS011;32098;49.448;7.904;2023-05-10T03:56:10;4.13;;;3.15;;
46391;SDS011;32098;49.448;7.904;2023-05-10T03:58:37;3.35;;;3.05;;
46391;SDS011;32098;49.448;7.904;2023-05-10T04:01:03;5.22;;;3.55;;
46391;SDS011;32098;49.448;7.904;2023-05-10T04:03:30;3.78;;;3.35;;
46391;SDS011;32098;49.448;7.904;2023-05-10T04:06:00;4.80;;;3.20;;
46391;SDS011;32098;49.448;7.904;2023-05-10T04:08:28;5.07;;;3.50;;
46391;SDS011;32098;49.448;7.904;2023-05-10T04:11:04;3.88;;;3.58;;
46391;SDS011;32098;49.448;7.904;2023-05-10T04:13:35;4.82;;;3.95;;
46391;SDS011;32098;49.448;7.904;2023-05-10T04:16:02;4.13;;;3.42;;
46391;SDS011;32098;49.448;7.904;2023-05-10T04:18:29;4.47;;;4.07;;
46391;SDS011;32098;49.448;7.904;2023-05-10T04:20:56;5.07;;;3.75;;
46391;SDS011;32098;49.448;7.904;2023-05-10T04:23:23;4.10;;;3.70;;
46391;SDS011;32098;49.448;7.904;2023-05-10T04:25:50;6.15;;;4.57;;
46391;SDS011;32098;49.448;7.904;2023-05-10T04:28:16;4.82;;;3.90;;
46391;SDS011;32098;49.448;7.904;2023-05-10T04:30:42;5.97;;;4.40;;
46391;SDS011;32098;49.448;7.904;2023-05-10T04:33:09;5.32;;;4.07;;
46391;SDS011;32098;49.448;7.904;2023-05-10T04:35:35;5.03;;;4.47;;
46391;SDS011;32098;49.448;7.904;2023-05-10T04:38:02;6.65;;;4.43;;
46391;SDS011;32098;49.448;7.904;2023-05-10T04:40:28;5.13;;;3.80;;
46391;SDS011;32098;49.448;7.904;2023-05-10T04:42:55;6.30;;;3.63;;
46391;SDS011;32098;49.448;7.904;2023-05-10T04:45:21;3.80;;;3.28;;
46391;SDS011;32098;49.448;7.904;2023-05-10T04:47:48;3.47;;;3.10;;
46391;SDS011;32098;49.448;7.904;2023-05-10T04:50:14;3.08;;;2.88;;
46391;SDS011;32098;49.448;7.904;2023-05-10T04:52:41;3.08;;;2.78;;
46391;SDS011;32098;49.448;7.904;2023-05-10T04:55:08;2.58;;;2.33;;
46391;SDS011;32098;49.448;7.904;2023-05-10T04:57:35;4.15;;;2.63;;
46391;SDS011;32098;49.448;7.904;2023-05-10T05:00:02;3.15;;;2.15;;
46391;SDS011;32098;49.448;7.904;2023-05-10T05:02:30;2.60;;;2.40;;
46391;SDS011;32098;49.448;7.904;2023-05-10T05:04:57;3.63;;;2.35;;
46391;SDS011;32098;49.448;7.904;2023-05-10T05:07:24;2.85;;;1.90;;
46391;SDS011;32098;49.448;7.904;2023-05-10T05:09:51;2.00;;;1.90;;
46391;SDS011;32098;49.448;7.904;2023-05-10T05:12:18;4.55;;;2.58;;
46391;SDS011;32098;49.448;7.904;2023-05-10T05:14:45;4.97;;;2.45;;
46391;SDS011;32098;49.448;7.904;2023-05-10T05:17:11;2.60;;;2.40;;
46391;SDS011;32098;49.448;7.904;2023-05-10T05:19:38;2.65;;;2.45;;
46391;SDS011;32098;49.448;7.904;2023-05-10T05:22:06;2.15;;;1.95;;
46391;SDS011;32098;49.448;7.904;2023-05-10T05:24:36;3.17;;;2.42;;
46391;SDS011;32098;49.448;7.904;2023-05-10T05:27:06;2.30;;;2.20;;
46391;SDS011;32098;49.448;7.904;2023-05-10T05:29:33;4.47;;;2.17;;
46391;SDS011;32098;49.448;7.904;2023-05-10T05:32:00;2.35;;;2.13;;
46391;SDS011;32098;49.448;7.904;2023-05-10T05:34:27;3.35;;;2.05;;
46391;SDS011;32098;49.448;7.904;2023-05-10T05:36:54;2.33;;;2.13;;
46391;SDS011;32098;49.448;7.904;2023-05-10T05:39:21;2.50;;;1.90;;
46391;SDS011;32098;49.448;7.904;2023-05-10T05:41:48;2.53;;;2.33;;
46391;SDS011;32098;49.448;7.904;2023-05-10T05:44:14;2.38;;;1.90;;
46391;SDS011;32098;49.448;7.904;2023-05-10T05:46:41;3.17;;;2.15;;
46391;SDS011;32098;49.448;7.904;2023-05-10T05:49:07;2.75;;;1.90;;
46391;SDS011;32098;49.448;7.904;2023-05-10T05:51:34;2.53;;;2.25;;
46391;SDS011;32098;49.448;7.904;2023-05-10T05:54:01;2.95;;;2.20;;
46391;SDS011;32098;49.448;7.904;2023-05-10T05:56:30;3.05;;;2.00;;
46391;SDS011;32098;49.448;7.904;2023-05-10T05:58:57;2.72;;;2.17;;
46391;SDS011;32098;49.448;7.904;2023-05-10T06:01:23;2.45;;;1.80;;
46391;SDS011;32098;49.448;7.904;2023-05-10T06:03:50;2.13;;;1.58;;
46391;SDS011;32098;49.448;7.904;2023-05-10T06:06:19;3.65;;;1.70;;
46391;SDS011;32098;49.448;7.904;2023-05-10T06:08:46;2.05;;;1.80;;
46391;SDS011;32098;49.448;7.904;2023-05-10T06:11:13;3.47;;;1.65;;
46391;SDS011;32098;49.448;7.904;2023-05-10T06:13:39;7.88;;;1.70;;
46391;SDS011;32098;49.448;7.904;2023-05-10T06:16:06;3.13;;;1.55;;
46391;SDS011;32098;49.448;7.904;2023-05-10T06:18:33;2.65;;;1.60;;
46391;SDS011;32098;49.448;7.904;2023-05-10T06:21:02;3.90;;;1.65;;
46391;SDS011;32098;49.448;7.904;2023-05-10T06:23:28;1.55;;;1.45;;
46391;SDS011;32098;49.448;7.904;2023-05-10T06:25:55;1.80;;;1.70;;
46391;SDS011;32098;49.448;7.904;2023-05-10T06:28:21;2.10;;;1.60;;
46391;SDS011;32098;49.448;7.904;2023-05-10T06:30:47;4.18;;;1.60;;
46391;SDS011;32098;49.448;7.904;2023-05-10T06:33:14;2.08;;;1.30;;
46391;SDS011;32098;49.448;7.904;2023-05-10T06:35:42;1.83;;;1.60;;
46391;SDS011;32098;49.448;7.904;2023-05-10T06:38:09;3.08;;;1.35;;
46391;SDS011;32098;49.448;7.904;2023-05-10T06:40:35;1.52;;;1.13;;
46391;SDS011;32098;49.448;7.904;2023-05-10T06:43:02;1.08;;;1.00;;
46391;SDS011;32098;49.448;7.904;2023-05-10T06:45:28;1.63;;;1.00;;
46391;SDS011;32098;49.448;7.904;2023-05-10T06:47:55;0.82;;;0.80;;
46391;SDS011;32098;49.448;7.904;2023-05-10T06:50:22;1.80;;;1.00;;
46391;SDS011;32098;49.448;7.904;2023-05-10T06:52:48;0.88;;;0.85;;
46391;SDS011;32098;49.448;7.904;2023-05-10T06:55:18;1.05;;;0.95;;
46391;SDS011;32098;49.448;7.904;2023-05-10T06:57:44;0.90;;;0.80;;
46391;SDS011;32098;49.448;7.904;2023-05-10T07:00:11;0.98;;;0.90;;
46391;SDS011;32098;49.448;7.904;2023-05-10T07:02:38;0.70;;;0.70;;
46391;SDS011;32098;49.448;7.904;2023-05-10T07:05:04;1.30;;;1.00;;
46391;SDS011;32098;49.448;7.904;2023-05-10T07:07:31;1.50;;;0.75;;
46391;SDS011;32098;49.448;7.904;2023-05-10T07:09:58;1.58;;;0.70;;
46391;SDS011;32098;49.448;7.904;2023-05-10T07:12:24;1.75;;;0.85;;
46391;SDS011;32098;49.448;7.904;2023-05-10T07:14:52;1.83;;;0.82;;
46391;SDS011;32098;49.448;7.904;2023-05-10T07:17:18;1.00;;;0.80;;
46391;SDS011;32098;49.448;7.904;2023-05-10T07:19:45;2.47;;;1.10;;
46391;SDS011;32098;49.448;7.904;2023-05-10T07:22:11;1.58;;;1.08;;
46391;SDS011;32098;49.448;7.904;2023-05-10T07:24:38;2.03;;;1.83;;
46391;SDS011;32098;49.448;7.904;2023-05-10T07:27:04;2.13;;;1.73;;
46391;SDS011;32098;49.448;7.904;2023-05-10T07:29:31;2.72;;;1.90;;
46391;SDS011;32098;49.448;7.904;2023-05-10T07:31:58;1.85;;;1.65;;
46391;SDS011;32098;49.448;7.904;2023-05-10T07:34:25;2.45;;;1.40;;
46391;SDS011;32098;49.448;7.904;2023-05-10T07:36:51;2.25;;;1.38;;
46391;SDS011;32098;49.448;7.904;2023-05-10T07:39:18;1.70;;;1.20;;
46391;SDS011;32098;49.448;7.904;2023-05-10T07:41:53;2.00;;;1.40;;
46391;SDS011;32098;49.448;7.904;2023-05-10T07:44:20;2.15;;;1.10;;
46391;SDS011;32098;49.448;7.904;2023-05-10T07:46:47;3.03;;;1.50;;
46391;SDS011;32098;49.448;7.904;2023-05-10T07:49:14;1.45;;;1.30;;
46391;SDS011;32098;49.448;7.904;2023-05-10T07:51:41;1.60;;;1.40;;
46391;SDS011;32098;49.448;7.904;2023-05-10T07:54:08;1.52;;;1.20;;
46391;SDS011;32098;49.448;7.904;2023-05-10T07:56:35;1.77;;;1.27;;
46391;SDS011;32098;49.448;7.904;2023-05-10T07:59:02;1.20;;;1.10;;
46391;SDS011;32098;49.448;7.904;2023-05-10T08:01:34;1.30;;;1.20;;
46391;SDS011;32098;49.448;7.904;2023-05-10T08:04:01;2.75;;;1.58;;
46391;SDS011;32098;49.448;7.904;2023-05-10T08:06:28;3.67;;;1.30;;
46391;SDS011;32098;49.448;7.904;2023-05-10T08:08:55;2.38;;;1.35;;
46391;SDS011;32098;49.448;7.904;2023-05-10T08:11:22;1.48;;;1.00;;
46391;SDS011;32098;49.448;7.904;2023-05-10T08:13:49;1.67;;;0.95;;
46391;SDS011;32098;49.448;7.904;2023-05-10T08:16:17;1.05;;;0.90;;
46391;SDS011;32098;49.448;7.904;2023-05-10T08:18:44;2.42;;;0.98;;
46391;SDS011;32098;49.448;7.904;2023-05-10T08:21:13;1.40;;;1.20;;
46391;SDS011;32098;49.448;7.904;2023-05-10T08:23:40;1.08;;;0.98;;
46391;SDS011;32098;49.448;7.904;2023-05-10T08:26:07;1.52;;;0.90;;
46391;SDS011;32098;49.448;7.904;2023-05-10T08:28:33;8.57;;;1.20;;
46391;SDS011;32098;49.448;7.904;2023-05-10T08:31:00;1.50;;;0.98;;
46391;SDS011;32098;49.448;7.904;2023-05-10T08:33:26;7.05;;;1.10;;
46391;SDS011;32098;49.448;7.904;2023-05-10T08:35:53;0.80;;;0.80;;
46391;SDS011;32098;49.448;7.904;2023-05-10T08:38:19;4.05;;;0.82;;
46391;SDS011;32098;49.448;7.904;2023-05-10T08:40:45;1.00;;;0.90;;
46391;SDS011;32098;49.448;7.904;2023-05-10T08:43:15;0.90;;;0.82;;
46391;SDS011;32098;49.448;7.904;2023-05-10T08:45:43;0.90;;;0.90;;
46391;SDS011;32098;49.448;7.904;2023-05-10T08:48:14;1.13;;;0.90;;
46391;SDS011;32098;49.448;7.904;2023-05-10T08:50:41;1.67;;;0.77;;
46391;SDS011;32098;49.448;7.904;2023-05-10T08:53:09;1.15;;;0.80;;
46391;SDS011;32098;49.448;7.904;2023-05-10T08:55:37;3.92;;;1.10;;
46391;SDS011;32098;49.448;7.904;2023-05-10T08:58:05;1.15;;;0.80;;
46391;SDS011;32098;49.448;7.904;2023-05-10T09:00:32;2.95;;;0.90;;
46391;SDS011;32098;49.448;7.904;2023-05-10T09:03:00;1.58;;;0.80;;
46391;SDS011;32098;49.448;7.904;2023-05-10T09:05:27;0.93;;;0.70;;
46391;SDS011;32098;49.448;7.904;2023-05-10T09:07:54;0.60;;;0.55;;
46391;SDS011;32098;49.448;7.904;2023-05-10T09:10:21;3.38;;;0.80;;
46391;SDS011;32098;49.448;7.904;2023-05-10T09:12:48;1.63;;;0.80;;
46391;SDS011;32098;49.448;7.904;2023-05-10T09:15:15;2.97;;;1.10;;
46391;SDS011;32098;49.448;7.904;2023-05-10T09:17:45;2.58;;;1.30;;
46391;SDS011;32098;49.448;7.904;2023-05-10T09:20:13;3.88;;;1.10;;
46391;SDS011;32098;49.448;7.904;2023-05-10T09:22:39;2.67;;;1.27;;
46391;SDS011;32098;49.448;7.904;2023-05-10T09:25:10;1.30;;;1.20;;
46391;SDS011;32098;49.448;7.904;2023-05-10T09:27:41;2.92;;;1.20;;
46391;SDS011;32098;49.448;7.904;2023-05-10T09:30:15;3.80;;;1.33;;
46391;SDS011;32098;49.448;7.904;2023-05-10T09:32:44;1.70;;;0.90;;
46391;SDS011;32098;49.448;7.904;2023-05-10T09:35:13;2.30;;;0.80;;
46391;SDS011;32098;49.448;7.904;2023-05-10T09:37:42;1.27;;;1.17;;
46391;SDS011;32098;49.448;7.904;2023-05-10T09:40:11;2.55;;;1.20;;
46391;SDS011;32098;49.448;7.904;2023-05-10T09:42:55;1.67;;;1.00;;
46391;SDS011;32098;49.448;7.904;2023-05-10T09:45:27;2.17;;;0.80;;
46391;SDS011;32098;49.448;7.904;2023-05-10T09:47:58;0.60;;;0.60;;
46391;SDS011;32098;49.448;7.904;2023-05-10T09:50:26;1.02;;;0.82;;
46391;SDS011;32098;49.448;7.904;2023-05-10T09:52:57;2.85;;;0.70;;
46391;SDS011;32098;49.448;7.904;2023-05-10T09:58:05;3.83;;;0.70;;
46391;SDS011;32098;49.448;7.904;2023-05-10T10:00:36;1.45;;;0.70;;
46391;SDS011;32098;49.448;7.904;2023-05-10T10:03:04;1.98;;;0.90;;
46391;SDS011;32098;49.448;7.904;2023-05-10T10:05:32;4.43;;;1.42;;
46391;SDS011;32098;49.448;7.904;2023-05-10T10:08:03;2.58;;;0.90;;
46391;SDS011;32098;49.448;7.904;2023-05-10T10:10:31;0.88;;;0.80;;
46391;SDS011;32098;49.448;7.904;2023-05-10T10:12:58;3.03;;;0.70;;
46391;SDS011;32098;49.448;7.904;2023-05-10T10:15:25;2.58;;;0.80;;
46391;SDS011;32098;49.448;7.904;2023-05-10T10:17:52;1.00;;;0.70;;
46391;SDS011;32098;49.448;7.904;2023-05-10T10:20:20;2.08;;;0.80;;
46391;SDS011;32098;49.448;7.904;2023-05-10T10:22:48;3.63;;;0.93;;
46391;SDS011;32098;49.448;7.904;2023-05-10T10:25:16;1.58;;;0.85;;
46391;SDS011;32098;49.448;7.904;2023-05-10T10:30:27;6.75;;;1.00;;
46391;SDS011;32098;49.448;7.904;2023-05-10T10:36:00;2.10;;;0.88;;
46391;SDS011;32098;49.448;7.904;2023-05-10T10:38:35;0.93;;;0.80;;
46391;SDS011;32098;49.448;7.904;2023-05-10T10:49:42;2.33;;;0.88;;
46391;SDS011;32098;49.448;7.904;2023-05-10T10:54:44;4.88;;;1.20;;
46391;SDS011;32098;49.448;7.904;2023-05-10T10:57:17;3.35;;;1.00;;
46391;SDS011;32098;49.448;7.904;2023-05-10T10:59:45;3.13;;;0.90;;
46391;SDS011;32098;49.448;7.904;2023-05-10T11:07:54;2.92;;;0.73;;
46391;SDS011;32098;49.448;7.904;2023-05-10T11:10:22;2.45;;;0.60;;
46391;SDS011;32098;49.448;7.904;2023-05-10T11:12:58;3.05;;;1.00;;
46391;SDS011;32098;49.448;7.904;2023-05-10T11:15:33;2.55;;;1.00;;
46391;SDS011;32098;49.448;7.904;2023-05-10T11:20:57;1.55;;;0.60;;
46391;SDS011;32098;49.448;7.904;2023-05-10T11:26:44;2.58;;;1.10;;
46391;SDS011;32098;49.448;7.904;2023-05-10T11:29:12;1.67;;;0.77;;
46391;SDS011;32098;49.448;7.904;2023-05-10T11:31:46;2.30;;;0.82;;
46391;SDS011;32098;49.448;7.904;2023-05-10T11:36:57;3.53;;;1.02;;
46391;SDS011;32098;49.448;7.904;2023-05-10T11:39:27;2.35;;;0.80;;
46391;SDS011;32098;49.448;7.904;2023-05-10T11:41:57;1.85;;;0.85;;
46391;SDS011;32098;49.448;7.904;2023-05-10T11:44:31;10.70;;;1.08;;
46391;SDS011;32098;49.448;7.904;2023-05-10T11:46:58;1.02;;;0.75;;
46391;SDS011;32098;49.448;7.904;2023-05-10T11:49:26;6.85;;;1.88;;
46391;SDS011;32098;49.448;7.904;2023-05-10T11:51:52;2.67;;;0.95;;
46391;SDS011;32098;49.448;7.904;2023-05-10T11:54:19;1.98;;;0.70;;
46391;SDS011;32098;49.448;7.904;2023-05-10T11:56:45;3.83;;;0.63;;
46391;SDS011;32098;49.448;7.904;2023-05-10T11:59:13;1.60;;;0.60;;
46391;SDS011;32098;49.448;7.904;2023-05-10T12:01:41;4.22;;;1.00;;
46391;SDS011;32098;49.448;7.904;2023-05-10T12:04:07;2.35;;;1.08;;
46391;SDS011;32098;49.448;7.904;2023-05-10T12:06:37;2.53;;;1.70;;
46391;SDS011;32098;49.448;7.904;2023-05-10T12:09:06;3.53;;;1.10;;
46391;SDS011;32098;49.448;7.904;2023-05-10T12:11:36;3.55;;;0.50;;
46391;SDS011;32098;49.448;7.904;2023-05-10T12:14:09;1.65;;;0.60;;
46391;SDS011;32098;49.448;7.904;2023-05-10T12:16:36;0.30;;;0.28;;
46391;SDS011;32098;49.448;7.904;2023-05-10T12:19:03;1.48;;;0.77;;
46391;SDS011;32098;49.448;7.904;2023-05-10T12:21:30;1.02;;;0.40;;
46391;SDS011;32098;49.448;7.904;2023-05-10T12:24:01;1.98;;;0.80;;
46391;SDS011;32098;49.448;7.904;2023-05-10T12:26:29;1.85;;;0.50;;
46391;SDS011;32098;49.448;7.904;2023-05-10T12:29:12;0.68;;;0.50;;
46391;SDS011;32098;49.448;7.904;2023-05-10T12:31:50;1.50;;;0.70;;
46391;SDS011;32098;49.448;7.904;2023-05-10T12:34:25;2.10;;;0.30;;
46391;SDS011;32098;49.448;7.904;2023-05-10T12:37:02;0.85;;;0.40;;
46391;SDS011;32098;49.448;7.904;2023-05-10T12:51:52;0.50;;;0.40;;
46391;SDS011;32098;49.448;7.904;2023-05-10T12:54:18;2.70;;;0.65;;
46391;SDS011;32098;49.448;7.904;2023-05-10T12:56:45;2.97;;;0.65;;
46391;SDS011;32098;49.448;7.904;2023-05-10T12:59:11;2.40;;;0.47;;
46391;SDS011;32098;49.448;7.904;2023-05-10T13:01:38;1.25;;;0.50;;
46391;SDS011;32098;49.448;7.904;2023-05-10T13:04:04;0.70;;;0.40;;
46391;SDS011;32098;49.448;7.904;2023-05-10T13:06:31;2.47;;;0.52;;
46391;SDS011;32098;49.448;7.904;2023-05-10T13:08:58;1.70;;;0.60;;
46391;SDS011;32098;49.448;7.904;2023-05-10T13:11:24;1.77;;;0.50;;
46391;SDS011;32098;49.448;7.904;2023-05-10T13:13:51;1.85;;;0.60;;
46391;SDS011;32098;49.448;7.904;2023-05-10T13:16:18;0.82;;;0.40;;
46391;SDS011;32098;49.448;7.904;2023-05-10T13:18:44;1.58;;;0.57;;
46391;SDS011;32098;49.448;7.904;2023-05-10T13:21:11;0.60;;;0.50;;
46391;SDS011;32098;49.448;7.904;2023-05-10T13:23:37;0.55;;;0.55;;
46391;SDS011;32098;49.448;7.904;2023-05-10T13:26:04;1.33;;;0.40;;
46391;SDS011;32098;49.448;7.904;2023-05-10T13:28:30;0.40;;;0.30;;
46391;SDS011;32098;49.448;7.904;2023-05-10T13:30:57;0.68;;;0.38;;
46391;SDS011;32098;49.448;7.904;2023-05-10T13:33:23;2.00;;;0.50;;
46391;SDS011;32098;49.448;7.904;2023-05-10T13:35:50;0.30;;;0.30;;
46391;SDS011;32098;49.448;7.904;2023-05-10T13:38:20;0.52;;;0.40;;
46391;SDS011;32098;49.448;7.904;2023-05-10T13:40:47;0.90;;;0.57;;
46391;SDS011;32098;49.448;7.904;2023-05-10T13:43:14;2.60;;;0.45;;
46391;SDS011;32098;49.448;7.904;2023-05-10T13:45:41;1.05;;;0.80;;
46391;SDS011;32098;49.448;7.904;2023-05-10T13:48:07;1.48;;;0.50;;
46391;SDS011;32098;49.448;7.904;2023-05-10T13:50:34;1.10;;;0.30;;
46391;SDS011;32098;49.448;7.904;2023-05-10T13:53:01;0.65;;;0.50;;
46391;SDS011;32098;49.448;7.904;2023-05-10T13:55:27;1.25;;;0.25;;
46391;SDS011;32098;49.448;7.904;2023-05-10T13:57:54;1.70;;;0.32;;
46391;SDS011;32098;49.448;7.904;2023-05-10T14:00:21;1.17;;;0.40;;
46391;SDS011;32098;49.448;7.904;2023-05-10T14:02:47;1.88;;;0.57;;
46391;SDS011;32098;49.448;7.904;2023-05-10T14:05:14;1.48;;;0.57;;
46391;SDS011;32098;49.448;7.904;2023-05-10T14:07:43;0.60;;;0.47;;
46391;SDS011;32098;49.448;7.904;2023-05-10T14:10:09;1.77;;;0.52;;
46391;SDS011;32098;49.448;7.904;2023-05-10T14:12:36;1.17;;;0.50;;
46391;SDS011;32098;49.448;7.904;2023-05-10T14:15:03;0.85;;;0.30;;
46391;SDS011;32098;49.448;7.904;2023-05-10T14:17:31;2.70;;;0.50;;
46391;SDS011;32098;49.448;7.904;2023-05-10T14:19:58;1.23;;;0.50;;
46391;SDS011;32098;49.448;7.904;2023-05-10T14:22:24;0.65;;;0.50;;
46391;SDS011;32098;49.448;7.904;2023-05-10T14:24:51;0.73;;;0.32;;
46391;SDS011;32098;49.448;7.904;2023-05-10T14:27:17;3.10;;;0.60;;
46391;SDS011;32098;49.448;7.904;2023-05-10T14:29:44;0.50;;;0.50;;
46391;SDS011;32098;49.448;7.904;2023-05-10T14:32:11;0.50;;;0.50;;
46391;SDS011;32098;49.448;7.904;2023-05-10T14:34:37;1.35;;;0.57;;
46391;SDS011;32098;49.448;7.904;2023-05-10T14:37:04;0.95;;;0.40;;
46391;SDS011;32098;49.448;7.904;2023-05-10T14:39:31;1.50;;;0.40;;
46391;SDS011;32098;49.448;7.904;2023-05-10T14:41:57;1.33;;;0.30;;
46391;SDS011;32098;49.448;7.904;2023-05-10T14:44:24;3.13;;;0.70;;
46391;SDS011;32098;49.448;7.904;2023-05-10T14:46:51;0.32;;;0.30;;
46391;SDS011;32098;49.448;7.904;2023-05-10T14:49:17;1.30;;;0.30;;
46391;SDS011;32098;49.448;7.904;2023-05-10T14:51:44;1.55;;;0.50;;
46391;SDS011;32098;49.448;7.904;2023-05-10T14:54:11;3.75;;;0.63;;
46391;SDS011;32098;49.448;7.904;2023-05-10T14:56:38;0.20;;;0.15;;
46391;SDS011;32098;49.448;7.904;2023-05-10T14:59:04;1.58;;;0.40;;
46391;SDS011;32098;49.448;7.904;2023-05-10T15:01:31;1.55;;;0.40;;
46391;SDS011;32098;49.448;7.904;2023-05-10T15:03:59;0.40;;;0.40;;
46391;SDS011;32098;49.448;7.904;2023-05-10T15:06:30;1.60;;;0.40;;
46391;SDS011;32098;49.448;7.904;2023-05-10T15:08:57;2.15;;;0.60;;
46391;SDS011;32098;49.448;7.904;2023-05-10T15:11:24;1.20;;;0.50;;
46391;SDS011;32098;49.448;7.904;2023-05-10T15:13:50;1.15;;;0.55;;
46391;SDS011;32098;49.448;7.904;2023-05-10T15:16:18;1.73;;;0.50;;
46391;SDS011;32098;49.448;7.904;2023-05-10T15:18:45;2.03;;;0.40;;
46391;SDS011;32098;49.448;7.904;2023-05-10T15:21:12;1.60;;;0.45;;
46391;SDS011;32098;49.448;7.904;2023-05-10T15:23:39;1.50;;;0.40;;
46391;SDS011;32098;49.448;7.904;2023-05-10T15:26:06;1.20;;;0.50;;
46391;SDS011;32098;49.448;7.904;2023-05-10T15:28:32;1.13;;;0.43;;
46391;SDS011;32098;49.448;7.904;2023-05-10T15:30:59;3.00;;;0.40;;
46391;SDS011;32098;49.448;7.904;2023-05-10T15:33:26;3.20;;;0.45;;
46391;SDS011;32098;49.448;7.904;2023-05-10T15:35:53;0.68;;;0.40;;
46391;SDS011;32098;49.448;7.904;2023-05-10T15:38:20;0.80;;;0.47;;
46391;SDS011;32098;49.448;7.904;2023-05-10T15:40:46;0.75;;;0.30;;
46391;SDS011;32098;49.448;7.904;2023-05-10T15:43:13;2.00;;;0.45;;
46391;SDS011;32098;49.448;7.904;2023-05-10T15:45:40;1.02;;;0.50;;
46391;SDS011;32098;49.448;7.904;2023-05-10T15:48:06;1.45;;;0.52;;
46391;SDS011;32098;49.448;7.904;2023-05-10T15:50:33;0.90;;;0.30;;
46391;SDS011;32098;49.448;7.904;2023-05-10T15:52:59;1.75;;;0.30;;
46391;SDS011;32098;49.448;7.904;2023-05-10T15:55:26;1.00;;;0.80;;